Time;durP1;ratioP1;P1;durP2;ratioP2;P2;SDS_P1;SDS_P2;PMS_P1;PMS_P2;Temp;Humidity;BMP_temperature;BMP_pressure;BME280_temperature;BME280_humidity;BME280_pressure;Samples;Min_cycle;Max_cycle;Signal;HPM_P1;HPM_P2
2022/03/30 00:00:01;;;;;;;19.40;9.43;;;;;;;38.90;44.49;100664.06;4749937;30;20496;-72
2022/03/30 00:02:27;;;;;;;21.30;7.30;;;;;;;39.10;44.10;100657.22;4749657;30;20457;-72
2022/03/30 00:04:53;;;;;;;23.47;9.47;;;;;;;38.91;44.39;100659.41;4749583;30;20485;-72
2022/03/30 00:07:19;;;;;;;21.30;7.13;;;;;;;39.09;44.11;100647.47;4750962;30;20440;-74
2022/03/30 00:09:45;;;;;;;20.03;7.60;;;;;;;39.01;44.32;100650.97;4735292;30;20440;-75
2022/03/30 00:12:11;;;;;;;17.37;7.67;;;;;;;38.83;45.03;100649.38;4749487;30;20503;-73
2022/03/30 00:14:37;;;;;;;20.87;8.87;;;;;;;38.78;44.79;100642.19;4749821;30;20439;-72
2022/03/30 00:17:04;;;;;;;20.97;8.20;;;;;;;38.79;44.87;100632.13;4766458;30;20497;-72
2022/03/30 00:19:31;;;;;;;17.60;7.47;;;;;;;38.70;44.83;100629.41;4767637;30;20439;-74
2022/03/30 00:21:58;;;;;;;23.17;9.80;;;;;;;38.91;44.37;100630.38;4768907;30;20397;-74
2022/03/30 00:24:26;;;;;;;20.83;6.63;;;;;;;38.96;44.19;100634.88;4770544;30;20426;-74
2022/03/30 00:26:52;;;;;;;22.90;8.30;;;;;;;38.86;44.67;100629.78;4770468;30;20439;-72
2022/03/30 00:29:18;;;;;;;12.73;6.77;;;;;;;38.68;45.33;100626.22;4770704;30;20436;-72
2022/03/30 00:31:45;;;;;;;13.30;6.67;;;;;;;38.67;44.88;100625.41;4770296;30;20468;-72
2022/03/30 00:34:11;;;;;;;20.07;7.60;;;;;;;38.72;44.75;100612.84;4771645;30;20443;-72
2022/03/30 00:36:38;;;;;;;14.00;7.80;;;;;;;38.39;45.35;100622.16;4770550;30;20836;-75
2022/03/30 00:39:04;;;;;;;12.20;6.37;;;;;;;38.65;44.51;100616.00;4770266;30;20455;-75
2022/03/30 00:41:30;;;;;;;13.77;7.50;;;;;;;38.84;44.32;100613.81;4770240;30;20424;-74
2022/03/30 00:43:56;;;;;;;25.53;7.80;;;;;;;38.96;44.08;100605.81;4770289;30;20514;-74
2022/03/30 00:46:22;;;;;;;22.77;8.40;;;;;;;38.75;44.56;100598.66;4770191;30;20424;-73
2022/03/30 00:48:48;;;;;;;17.33;7.93;;;;;;;38.70;45.07;100599.56;4771372;30;20513;-75
2022/03/30 00:51:14;;;;;;;15.30;7.77;;;;;;;38.69;45.07;100584.44;4770043;30;20472;-73
2022/03/30 00:53:40;;;;;;;23.13;7.33;;;;;;;38.84;44.77;100585.88;4771457;30;20481;-73
2022/03/30 00:56:08;;;;;;;16.07;6.57;;;;;;;38.74;44.56;100576.19;4770061;30;20484;-74
2022/03/30 00:58:34;;;;;;;23.40;7.70;;;;;;;38.76;44.91;100578.56;4769991;30;20428;-74
2022/03/30 01:01:00;;;;;;;26.20;7.40;;;;;;;38.69;44.76;100577.09;4769951;30;20531;-74
2022/03/30 01:03:26;;;;;;;18.43;6.13;;;;;;;38.74;44.66;100578.09;4755219;30;20463;-71
2022/03/30 01:05:52;;;;;;;15.27;7.30;;;;;;;38.60;45.35;100573.56;4769646;30;20883;-74
2022/03/30 01:08:18;;;;;;;19.13;7.90;;;;;;;38.37;45.50;100564.78;4769874;30;20856;-74
2022/03/30 01:10:44;;;;;;;18.90;7.03;;;;;;;38.46;45.25;100564.78;4769757;30;20495;-75
2022/03/30 01:13:12;;;;;;;12.70;7.53;;;;;;;38.62;44.85;100560.50;4769674;30;20501;-74
2022/03/30 01:15:39;;;;;;;18.30;8.40;;;;;;;38.74;44.37;100561.81;4769780;30;20522;-73
2022/03/30 01:18:05;;;;;;;17.90;7.57;;;;;;;38.56;44.53;100556.34;4769427;30;20432;-73
2022/03/30 01:20:32;;;;;;;18.73;7.80;;;;;;;38.70;45.00;100554.28;4769371;30;20512;-72
2022/03/30 01:22:58;;;;;;;29.03;9.30;;;;;;;38.81;44.57;100556.72;4769409;30;20428;-74
2022/03/30 01:25:25;;;;;;;19.27;7.07;;;;;;;38.91;44.52;100559.88;4769894;30;20460;-74
2022/03/30 01:27:51;;;;;;;21.87;11.47;;;;;;;38.85;44.52;100554.94;4769415;30;20499;-72
2022/03/30 01:33:05;;;;;;;21.87;7.40;;;;;;;38.93;44.53;100562.28;4769725;30;20411;-75
2022/03/30 01:35:31;;;;;;;25.43;8.03;;;;;;;38.93;44.42;100556.88;4770108;30;20416;-74
2022/03/30 01:37:57;;;;;;;23.13;9.30;;;;;;;38.82;44.28;100552.88;4769141;30;20440;-74
2022/03/30 01:40:24;;;;;;;30.90;7.80;;;;;;;38.87;44.23;100550.00;4769261;30;20520;-72
2022/03/30 01:42:50;;;;;;;13.20;8.43;;;;;;;38.90;44.29;100542.03;4769310;30;20472;-74
2022/03/30 01:45:16;;;;;;;18.27;8.37;;;;;;;38.83;44.22;100541.72;4769187;30;20432;-74
2022/03/30 01:47:54;;;;;;;17.90;7.77;;;;;;;38.65;44.91;100545.50;4769219;30;20440;-72
2022/03/30 01:50:21;;;;;;;31.53;7.30;;;;;;;38.53;44.56;100538.00;4769033;30;20490;-73
2022/03/30 01:52:47;;;;;;;21.40;5.93;;;;;;;38.60;44.67;100540.25;4756716;30;20812;-75
2022/03/30 01:55:15;;;;;;;19.87;7.17;;;;;;;38.72;44.90;100540.44;4751173;30;20489;-74
2022/03/30 01:57:42;;;;;;;17.83;7.90;;;;;;;38.82;44.25;100539.31;4751291;30;20926;-74
2022/03/30 02:00:10;;;;;;;16.93;7.50;;;;;;;38.64;45.53;100536.59;4751246;30;20487;-73
2022/03/30 02:02:37;;;;;;;19.40;9.10;;;;;;;38.93;44.72;100525.13;4751100;30;20457;-74
2022/03/30 02:05:05;;;;;;;19.27;6.90;;;;;;;38.60;45.10;100532.91;4751145;30;20921;-72
2022/03/30 02:07:31;;;;;;;14.53;6.93;;;;;;;38.65;44.96;100529.25;4751071;30;20837;-74
2022/03/30 02:09:57;;;;;;;20.20;9.10;;;;;;;38.70;45.20;100535.31;4763297;30;20991;-74
2022/03/30 02:12:23;;;;;;;21.60;10.27;;;;;;;38.70;44.74;100534.50;4768611;30;20518;-73
2022/03/30 02:14:51;;;;;;;15.57;6.87;;;;;;;38.59;44.98;100531.31;4768712;30;20433;-72
2022/03/30 02:17:19;;;;;;;21.53;8.93;;;;;;;38.53;44.99;100524.47;4768717;30;20939;-74
2022/03/30 02:19:46;;;;;;;24.77;8.63;;;;;;;38.37;45.73;100524.16;4768695;30;20944;-74
2022/03/30 02:22:12;;;;;;;20.60;7.70;;;;;;;38.49;45.07;100523.53;4769639;30;20444;-74
2022/03/30 02:24:38;;;;;;;20.07;7.33;;;;;;;38.60;45.29;100529.41;4768617;30;20442;-72
2022/03/30 02:27:05;;;;;;;21.50;7.77;;;;;;;38.62;44.95;100524.47;4768438;30;20432;-72
2022/03/30 02:29:31;;;;;;;20.53;7.27;;;;;;;38.66;44.47;100514.56;4768539;30;20435;-75
2022/03/30 02:31:59;;;;;;;13.50;8.07;;;;;;;38.74;44.26;100505.69;4768310;30;20479;-73
2022/03/30 02:34:26;;;;;;;18.50;7.43;;;;;;;38.81;44.48;100513.34;4769990;30;20413;-72
2022/03/30 02:36:52;;;;;;;21.37;7.63;;;;;;;38.67;44.23;100511.56;4768426;30;20435;-75
2022/03/30 02:39:19;;;;;;;17.70;8.00;;;;;;;38.64;44.50;100508.69;4768309;30;20504;-73
2022/03/30 02:41:46;;;;;;;18.17;9.23;;;;;;;38.87;44.17;100512.06;4768260;30;20425;-73
2022/03/30 02:44:15;;;;;;;21.20;8.73;;;;;;;38.63;44.29;100509.81;4768359;30;20435;-74
2022/03/30 02:46:41;;;;;;;16.63;6.60;;;;;;;38.88;44.15;100506.31;4768779;30;20400;-74
2022/03/30 02:49:07;;;;;;;12.53;7.77;;;;;;;38.85;44.06;100506.94;4768255;30;20428;-74
2022/03/30 02:51:34;;;;;;;29.40;9.67;;;;;;;38.89;43.93;100509.81;4767868;30;20564;-74
2022/03/30 02:54:00;;;;;;;15.83;7.17;;;;;;;38.81;44.13;100510.63;4768196;30;20960;-73
2022/03/30 02:56:26;;;;;;;13.33;8.87;;;;;;;38.65;44.46;100505.66;4767942;30;20999;-73
2022/03/30 02:58:52;;;;;;;23.57;8.33;;;;;;;38.72;44.12;100501.69;4768006;30;20440;-74
2022/03/30 03:01:18;;;;;;;27.67;7.83;;;;;;;38.61;44.34;100502.00;4767844;30;20452;-72
2022/03/30 03:03:44;;;;;;;22.50;8.73;;;;;;;38.62;44.57;100502.78;4767918;30;20428;-73
2022/03/30 03:06:10;;;;;;;21.77;9.47;;;;;;;38.65;44.30;100496.72;4767826;30;20525;-72
2022/03/30 03:08:37;;;;;;;20.20;8.43;;;;;;;38.61;44.41;100503.88;4768252;30;20448;-72
2022/03/30 03:11:03;;;;;;;24.17;8.80;;;;;;;38.82;44.20;100495.94;4768994;30;20467;-73
2022/03/30 03:13:29;;;;;;;15.37;6.93;;;;;;;38.88;44.22;100495.47;4767710;30;20605;-72
2022/03/30 03:15:55;;;;;;;24.63;7.97;;;;;;;38.91;43.72;100500.22;4769060;30;20408;-72
2022/03/30 03:18:21;;;;;;;26.17;10.67;;;;;;;38.92;43.25;100491.00;4767844;30;20432;-72
2022/03/30 03:20:48;;;;;;;22.07;10.80;;;;;;;38.71;44.27;100490.03;4767962;30;20463;-73
2022/03/30 03:23:16;;;;;;;19.60;8.23;;;;;;;38.77;43.98;100488.75;4768927;30;20417;-72
2022/03/30 03:25:44;;;;;;;15.90;7.67;;;;;;;38.64;44.00;100493.22;4767715;30;20526;-72
2022/03/30 03:28:11;;;;;;;20.63;7.67;;;;;;;38.56;44.07;100485.88;4767710;30;20956;-72
2022/03/30 03:30:38;;;;;;;13.60;6.80;;;;;;;38.65;44.08;100486.66;4768998;30;20463;-73
2022/03/30 03:33:05;;;;;;;13.90;7.10;;;;;;;38.76;44.37;100494.50;4767466;30;20433;-72
2022/03/30 03:35:32;;;;;;;27.77;8.90;;;;;;;38.84;44.15;100488.28;4767637;30;20435;-72
2022/03/30 03:37:59;;;;;;;18.70;10.23;;;;;;;38.87;44.00;100482.22;4768840;30;20408;-72
2022/03/30 03:40:27;;;;;;;25.00;9.63;;;;;;;38.83;44.22;100484.78;4767517;30;20789;-72
2022/03/30 03:42:54;;;;;;;16.50;8.00;;;;;;;38.86;43.44;100491.47;4767635;30;20432;-72
2022/03/30 03:45:20;;;;;;;17.40;8.40;;;;;;;38.88;44.07;100492.75;4768664;30;20487;-72
2022/03/30 03:47:48;;;;;;;20.73;8.83;;;;;;;38.81;44.29;100494.34;4767662;30;20523;-74
2022/03/30 03:50:14;;;;;;;22.73;9.07;;;;;;;38.82;43.72;100496.75;4767567;30;20466;-72
2022/03/30 03:52:41;;;;;;;14.97;7.53;;;;;;;38.76;43.76;100497.22;4767480;30;20440;-74
2022/03/30 03:55:08;;;;;;;25.03;9.27;;;;;;;38.86;43.80;100496.91;4767409;30;20484;-73
2022/03/30 03:57:35;;;;;;;15.73;7.53;;;;;;;38.84;43.33;100501.84;4761921;30;20433;-75
2022/03/30 04:00:03;;;;;;;18.43;9.37;;;;;;;38.61;44.09;100502.00;4753212;30;20852;-74
2022/03/30 04:02:29;;;;;;;14.20;6.87;;;;;;;38.76;43.39;100511.56;4754317;30;20957;-74
2022/03/30 04:04:55;;;;;;;17.10;7.90;;;;;;;38.65;44.00;100508.34;4765255;30;20428;-74
2022/03/30 04:07:21;;;;;;;27.67;10.43;;;;;;;38.74;44.03;100521.16;4770904;30;20428;-72
2022/03/30 04:09:47;;;;;;;25.53;7.83;;;;;;;38.82;43.69;100515.72;4770693;30;20935;-72
2022/03/30 04:12:13;;;;;;;21.13;8.70;;;;;;;38.92;43.71;100520.03;4770742;30;20491;-72
2022/03/30 04:14:39;;;;;;;30.77;12.13;;;;;;;38.80;43.99;100528.81;4770768;30;20424;-72
2022/03/30 04:17:05;;;;;;;19.37;10.27;;;;;;;38.77;43.80;100529.44;4770509;30;20517;-73
2022/03/30 04:19:31;;;;;;;19.97;8.43;;;;;;;38.73;43.69;100531.19;4770730;30;20456;-72
2022/03/30 04:21:58;;;;;;;25.93;8.33;;;;;;;38.65;43.69;100527.31;4770552;30;20435;-73
2022/03/30 04:24:24;;;;;;;19.80;9.73;;;;;;;38.64;43.92;100533.06;4755752;30;20547;-72
2022/03/30 04:26:50;;;;;;;15.17;8.00;;;;;;;38.85;43.47;100536.75;4770845;30;20474;-72
2022/03/30 04:29:16;;;;;;;15.33;7.57;;;;;;;38.90;43.45;100542.03;4771764;30;20419;-72
2022/03/30 04:31:42;;;;;;;16.70;8.63;;;;;;;38.80;43.50;100544.28;4770420;30;20460;-73
2022/03/30 04:34:08;;;;;;;36.57;10.43;;;;;;;38.71;43.72;100546.94;4771924;30;20503;-74
2022/03/30 04:36:34;;;;;;;30.07;8.43;;;;;;;38.86;43.57;100546.50;4770226;30;20963;-72
2022/03/30 04:39:00;;;;;;;21.07;7.90;;;;;;;38.94;43.37;100551.13;4770364;30;20436;-73
2022/03/30 04:41:26;;;;;;;20.30;8.93;;;;;;;38.88;43.01;100540.75;4770231;30;20436;-74
2022/03/30 04:43:52;;;;;;;23.93;8.50;;;;;;;38.76;43.42;100541.41;4771430;30;20456;-72
2022/03/30 04:46:18;;;;;;;19.33;9.17;;;;;;;38.76;43.27;100537.91;4755507;30;20519;-73
2022/03/30 04:48:44;;;;;;;20.00;8.37;;;;;;;38.91;43.25;100542.81;4770123;30;20443;-72
2022/03/30 04:51:10;;;;;;;24.23;8.03;;;;;;;38.79;43.83;100545.38;4769976;30;20483;-72
2022/03/30 04:53:36;;;;;;;19.90;7.70;;;;;;;38.83;43.42;100546.34;4771350;30;20423;-73
2022/03/30 04:56:03;;;;;;;21.77;9.00;;;;;;;38.68;43.52;100542.97;4769869;30;20479;-72
2022/03/30 04:58:30;;;;;;;17.67;7.10;;;;;;;38.80;43.26;100541.56;4769901;30;20467;-74
2022/03/30 05:00:56;;;;;;;24.20;9.87;;;;;;;38.96;43.45;100548.06;4771160;30;20544;-74
2022/03/30 05:03:22;;;;;;;20.60;8.67;;;;;;;38.95;43.40;100547.28;4771224;30;20492;-74
2022/03/30 05:05:48;;;;;;;20.70;7.60;;;;;;;38.96;43.32;100545.38;4769739;30;20463;-72
2022/03/30 05:08:14;;;;;;;25.13;7.73;;;;;;;39.02;42.80;100554.94;4769461;30;20421;-73
2022/03/30 05:10:40;;;;;;;26.50;8.47;;;;;;;38.99;43.36;100560.22;4769280;30;20494;-72
2022/03/30 05:13:06;;;;;;;14.73;7.23;;;;;;;38.93;43.41;100556.88;4769586;30;20470;-72
2022/03/30 05:15:32;;;;;;;16.20;7.17;;;;;;;38.96;43.42;100558.94;4771067;30;20445;-73
2022/03/30 05:18:00;;;;;;;29.17;8.90;;;;;;;38.91;43.38;100559.88;4769556;30;20459;-72
2022/03/30 05:20:27;;;;;;;18.20;9.37;;;;;;;38.92;43.31;100566.91;4769432;30;21015;-72
2022/03/30 05:22:53;;;;;;;22.57;8.23;;;;;;;38.87;43.21;100563.56;4769530;30;20847;-72
2022/03/30 05:25:20;;;;;;;18.23;8.17;;;;;;;38.77;43.28;100561.19;4770843;30;20424;-74
2022/03/30 05:27:46;;;;;;;12.70;8.00;;;;;;;38.83;43.60;100565.31;4769499;30;20529;-75
2022/03/30 05:30:13;;;;;;;24.27;9.47;;;;;;;39.00;42.86;100578.88;4769494;30;20432;-74
2022/03/30 05:32:45;;;;;;;19.37;13.37;;;;;;;38.99;43.34;100577.28;4769309;30;20995;-73
2022/03/30 05:35:13;;;;;;;16.33;7.40;;;;;;;39.08;42.91;100582.69;4770727;30;20416;-73
2022/03/30 05:37:39;;;;;;;26.73;9.23;;;;;;;39.02;43.14;100575.84;4769379;30;20431;-72
2022/03/30 05:40:07;;;;;;;19.80;7.60;;;;;;;38.92;43.05;100585.13;4769254;30;20420;-72
2022/03/30 05:42:33;;;;;;;19.07;8.90;;;;;;;38.84;43.17;100586.69;4769136;30;20420;-72
2022/03/30 05:45:00;;;;;;;17.63;8.90;;;;;;;38.89;43.22;100593.88;4768206;30;20809;-72
2022/03/30 05:47:28;;;;;;;18.63;8.00;;;;;;;38.92;43.19;100587.81;4753113;30;20535;-72
2022/03/30 05:49:54;;;;;;;22.50;8.93;;;;;;;38.99;43.18;100590.06;4766552;30;20428;-72
2022/03/30 05:52:20;;;;;;;31.67;9.30;;;;;;;38.95;43.29;100593.38;4751625;30;20503;-72
2022/03/30 05:54:46;;;;;;;19.80;9.50;;;;;;;39.00;43.27;100603.28;4751270;30;20421;-72
2022/03/30 05:57:12;;;;;;;19.63;10.43;;;;;;;39.09;43.00;100604.06;4760625;30;20475;-72
2022/03/30 05:59:41;;;;;;;28.83;8.37;;;;;;;39.14;43.20;100603.13;4754211;30;21058;-72
2022/03/30 06:02:10;;;;;;;23.00;9.80;;;;;;;39.15;43.10;100602.78;4751176;30;20449;-79
2022/03/30 06:04:38;;;;;;;18.50;8.80;;;;;;;39.12;43.15;100602.66;4761146;30;20467;-71
2022/03/30 06:07:05;;;;;;;21.57;9.20;;;;;;;39.14;42.99;100608.53;4752034;30;20498;-71
2022/03/30 06:09:34;;;;;;;28.27;9.73;;;;;;;39.19;42.79;100605.69;4768326;30;20948;-71
2022/03/30 06:12:02;;;;;;;13.80;9.40;;;;;;;38.97;43.14;100603.91;4766923;30;20788;-72
2022/03/30 06:14:28;;;;;;;24.03;9.50;;;;;;;38.98;43.16;100616.38;4767533;30;20486;-71
2022/03/30 06:16:54;;;;;;;25.03;9.40;;;;;;;39.05;43.21;100613.97;4765344;30;20448;-72
2022/03/30 06:19:20;;;;;;;23.77;8.13;;;;;;;39.11;42.96;100620.84;4761573;30;20448;-74
2022/03/30 06:21:48;;;;;;;25.50;10.13;;;;;;;39.05;43.21;100622.13;4756471;30;20497;-73
2022/03/30 06:24:14;;;;;;;19.07;9.23;;;;;;;38.93;43.08;100625.47;4755230;30;20440;-73
2022/03/30 06:26:41;;;;;;;42.33;9.67;;;;;;;38.85;43.58;100620.81;4767839;30;20806;-77
2022/03/30 06:29:08;;;;;;;17.57;8.83;;;;;;;38.93;43.48;100632.81;4768269;30;20444;-75
2022/03/30 06:31:35;;;;;;;41.87;10.50;;;;;;;38.96;43.66;100632.94;4753679;30;21098;-74
2022/03/30 06:34:03;;;;;;;22.33;9.93;;;;;;;39.10;43.49;100632.00;4749627;30;20874;-75
2022/03/30 06:36:31;;;;;;;25.53;12.47;;;;;;;39.17;43.30;100641.28;4751820;30;20513;-73
2022/03/30 06:38:58;;;;;;;32.27;10.67;;;;;;;39.07;43.77;100643.50;4750703;30;20421;-73
2022/03/30 06:41:24;;;;;;;25.90;9.63;;;;;;;38.93;43.64;100647.16;4751785;30;20467;-75
2022/03/30 06:43:51;;;;;;;22.60;8.20;;;;;;;38.86;43.94;100654.19;4750565;30;21021;-77
2022/03/30 06:46:19;;;;;;;17.20;8.57;;;;;;;38.94;43.72;100645.25;4750402;30;20457;-76
2022/03/30 06:48:46;;;;;;;15.63;8.00;;;;;;;39.03;43.63;100659.59;4751450;30;20409;-75
2022/03/30 06:51:13;;;;;;;31.63;10.00;;;;;;;39.12;43.34;100656.91;4749928;30;20491;-76
2022/03/30 06:53:39;;;;;;;21.60;8.83;;;;;;;39.13;43.41;100650.34;4750370;30;20939;-77
2022/03/30 06:56:05;;;;;;;21.17;9.80;;;;;;;39.22;43.48;100654.66;4750329;30;20493;-74
2022/03/30 06:58:31;;;;;;;25.10;10.00;;;;;;;39.13;43.41;100659.28;4750218;30;20555;-73
2022/03/30 07:00:59;;;;;;;27.47;9.87;;;;;;;39.25;43.35;100663.31;4751721;30;20481;-74
2022/03/30 07:03:27;;;;;;;21.93;10.07;;;;;;;39.26;43.22;100662.19;4750302;30;20575;-74
2022/03/30 07:05:56;;;;;;;19.40;8.30;;;;;;;39.16;43.38;100663.28;4750110;30;20543;-75
2022/03/30 07:11:07;;;;;;;45.13;24.60;;;;;;;39.33;42.54;100679.56;4757127;30;20474;-75
2022/03/30 07:13:33;;;;;;;46.57;26.43;;;;;;;39.33;42.48;100687.72;4767817;30;20484;-75
2022/03/30 07:15:59;;;;;;;54.43;25.53;;;;;;;39.32;42.38;100698.91;4767904;30;20428;-78
2022/03/30 07:18:26;;;;;;;37.73;20.70;;;;;;;39.36;42.42;100710.72;4767927;30;20939;-78
2022/03/30 07:20:53;;;;;;;47.67;28.67;;;;;;;39.31;41.68;100705.44;4766759;30;20439;-77
2022/03/30 07:23:20;;;;;;;46.00;24.00;;;;;;;39.37;41.98;100701.47;4766058;30;20527;-75
2022/03/30 07:25:47;;;;;;;35.67;22.40;;;;;;;39.34;41.56;100699.38;4766832;30;20925;-75
2022/03/30 07:28:15;;;;;;;39.43;20.87;;;;;;;39.40;41.72;100695.38;4765893;30;20510;-75
2022/03/30 07:30:43;;;;;;;25.60;13.53;;;;;;;39.28;41.88;100695.22;4766147;30;20564;-77
2022/03/30 07:33:09;;;;;;;34.03;16.10;;;;;;;39.34;42.03;100702.09;4769546;30;20501;-77
2022/03/30 07:35:37;;;;;;;24.80;13.50;;;;;;;39.34;42.33;100707.50;4769423;30;20948;-75
2022/03/30 07:38:03;;;;;;;28.10;14.80;;;;;;;39.39;42.29;100710.06;4769681;30;20903;-77
2022/03/30 07:40:30;;;;;;;18.00;9.40;;;;;;;39.34;42.53;100713.72;4769522;30;20432;-75
2022/03/30 07:42:56;;;;;;;22.03;11.43;;;;;;;39.36;42.81;100719.66;4769080;30;20509;-75
2022/03/30 07:45:24;;;;;;;40.23;12.60;;;;;;;39.39;42.47;100718.22;4769572;30;20944;-78
2022/03/30 07:47:51;;;;;;;23.60;11.30;;;;;;;39.16;42.92;100717.56;4770202;30;20450;-77
2022/03/30 07:50:18;;;;;;;21.70;10.70;;;;;;;39.25;42.89;100723.78;4770646;30;20531;-74
2022/03/30 07:52:45;;;;;;;29.43;10.73;;;;;;;39.30;43.07;100731.78;4756221;30;20604;-75
2022/03/30 07:55:12;;;;;;;22.03;11.07;;;;;;;39.30;42.98;100733.69;4770919;30;20548;-76
2022/03/30 07:57:42;;;;;;;21.97;8.87;;;;;;;39.20;43.43;100735.59;4772347;30;20512;-74
2022/03/30 08:00:10;;;;;;;21.63;9.00;;;;;;;39.15;43.51;100738.44;4771075;30;20465;-74
2022/03/30 08:02:37;;;;;;;14.20;10.20;;;;;;;39.29;43.26;100748.38;4772732;30;20451;-77
2022/03/30 08:05:03;;;;;;;22.30;9.53;;;;;;;39.28;42.58;100744.84;4770728;30;20424;-74
2022/03/30 08:07:30;;;;;;;22.00;9.37;;;;;;;39.21;42.25;100752.66;4770750;30;20432;-76
2022/03/30 08:09:57;;;;;;;27.60;9.87;;;;;;;39.21;42.32;100748.03;4753366;30;20443;-74
2022/03/30 08:12:25;;;;;;;20.37;8.60;;;;;;;39.14;42.79;100749.59;4751577;30;20469;-73
2022/03/30 08:14:52;;;;;;;22.03;9.23;;;;;;;39.28;42.74;100741.34;4751344;30;20433;-72
2022/03/30 08:17:18;;;;;;;38.70;15.10;;;;;;;39.15;42.85;100743.06;4752558;30;20889;-71
2022/03/30 08:19:44;;;;;;;28.43;11.50;;;;;;;39.14;43.03;100746.91;4765943;30;20956;-71
2022/03/30 08:22:26;;;;;;;24.57;9.90;;;;;;;39.31;42.93;100751.56;4752357;30;20493;-71
2022/03/30 08:25:07;;;;;;;26.40;10.90;;;;;;;39.38;42.61;100762.75;4740841;30;20428;-74
2022/03/30 08:27:34;;;;;;;18.83;9.17;;;;;;;39.41;42.91;100762.09;4754005;30;20457;-71
2022/03/30 08:30:01;;;;;;;25.53;7.60;;;;;;;39.42;42.62;100763.72;4752829;30;20420;-71
2022/03/30 08:32:27;;;;;;;16.10;8.40;;;;;;;39.41;42.74;100762.94;4738075;30;20464;-71
2022/03/30 08:34:55;;;;;;;21.90;9.83;;;;;;;39.15;43.18;100749.28;4752616;30;20437;-71
2022/03/30 08:37:22;;;;;;;13.20;8.80;;;;;;;39.32;43.03;100764.81;4753802;30;20532;-71
2022/03/30 08:39:50;;;;;;;22.90;10.50;;;;;;;39.34;43.15;100753.63;4752103;30;20437;-73
2022/03/30 08:42:17;;;;;;;32.13;11.27;;;;;;;39.17;43.51;100766.09;4767344;30;20417;-73
2022/03/30 08:44:46;;;;;;;32.60;12.13;;;;;;;39.42;43.22;100769.94;4763086;30;20963;-73
2022/03/30 08:47:13;;;;;;;36.60;10.57;;;;;;;39.44;42.67;100753.34;4770042;30;20444;-75
2022/03/30 08:49:40;;;;;;;26.93;8.83;;;;;;;39.45;43.27;100761.16;4770091;30;20925;-74
2022/03/30 08:52:08;;;;;;;21.80;7.10;;;;;;;39.00;43.64;100751.66;4770089;30;20464;-74
2022/03/30 08:54:35;;;;;;;16.40;8.67;;;;;;;39.12;43.50;100752.66;4769606;30;20448;-74
2022/03/30 08:57:03;;;;;;;26.40;10.30;;;;;;;39.28;42.97;100758.41;4769862;30;20568;-73
2022/03/30 08:59:30;;;;;;;21.00;10.37;;;;;;;39.10;43.49;100762.19;4769605;30;20447;-71
2022/03/30 09:01:57;;;;;;;25.43;10.03;;;;;;;39.25;43.47;100761.78;4769727;30;20458;-72
2022/03/30 09:04:25;;;;;;;21.07;11.97;;;;;;;39.39;43.09;100769.78;4770421;30;20416;-73
2022/03/30 09:06:54;;;;;;;28.37;11.13;;;;;;;39.35;42.92;100772.34;4769906;30;20784;-73
2022/03/30 09:09:31;;;;;;;31.93;10.63;;;;;;;39.25;43.47;100777.28;4769714;30;20545;-73
2022/03/30 09:11:59;;;;;;;21.53;10.13;;;;;;;39.34;42.92;100778.06;4769238;30;20487;-73
2022/03/30 09:14:29;;;;;;;24.83;7.90;;;;;;;39.23;43.18;100777.59;4768005;30;20557;-73
2022/03/30 09:16:58;;;;;;;20.13;7.63;;;;;;;39.40;43.18;100782.22;4768027;30;20420;-73
2022/03/30 09:19:25;;;;;;;29.57;10.13;;;;;;;39.40;43.05;100776.78;4767868;30;20428;-73
2022/03/30 09:21:57;;;;;;;21.33;8.23;;;;;;;39.43;42.64;100781.59;4767904;30;20931;-73
2022/03/30 09:24:31;;;;;;;25.47;12.50;;;;;;;39.50;42.70;100788.13;4767653;30;20460;-75
2022/03/30 09:26:58;;;;;;;28.20;9.73;;;;;;;39.69;42.33;100789.78;4769026;30;20535;-76
2022/03/30 09:29:26;;;;;;;27.97;9.10;;;;;;;39.66;42.48;100793.13;4769208;30;20498;-72
2022/03/30 09:31:53;;;;;;;22.23;10.67;;;;;;;39.40;43.27;100791.16;4769353;30;20555;-71
2022/03/30 09:34:20;;;;;;;15.93;9.10;;;;;;;39.47;43.31;100783.38;4769380;30;20505;-73
2022/03/30 09:36:50;;;;;;;12.93;9.23;;;;;;;39.54;42.97;100782.88;4769190;30;20452;-72
2022/03/30 09:39:31;;;;;;;25.13;9.40;;;;;;;39.52;42.81;100787.81;4769335;30;20479;-72
2022/03/30 09:41:59;;;;;;;20.83;9.67;;;;;;;39.49;42.82;100788.47;4769277;30;20527;-71
2022/03/30 09:44:30;;;;;;;20.07;9.40;;;;;;;39.37;42.95;100794.53;4769233;30;20440;-71
2022/03/30 09:47:07;;;;;;;29.90;10.27;;;;;;;39.27;43.43;100786.69;4769162;30;20523;-71
2022/03/30 09:49:47;;;;;;;20.63;11.50;;;;;;;39.39;43.68;100788.78;4766783;30;20416;-71
2022/03/30 09:52:19;;;;;;;22.17;10.30;;;;;;;39.31;43.62;100784.94;4751217;30;20530;-71
2022/03/30 09:54:49;;;;;;;22.00;9.63;;;;;;;39.41;43.16;100776.50;4751924;30;20421;-71
2022/03/30 09:57:24;;;;;;;24.83;13.00;;;;;;;39.25;43.17;100779.97;4759915;30;20504;-70
2022/03/30 10:00:02;;;;;;;34.27;14.20;;;;;;;39.52;42.74;100778.88;4754402;30;20431;-69
2022/03/30 10:02:34;;;;;;;26.63;10.70;;;;;;;39.53;43.11;100772.31;4768873;30;20451;-70
2022/03/30 10:05:01;;;;;;;26.13;11.33;;;;;;;39.41;43.16;100772.94;4739682;30;20440;-70
2022/03/30 10:07:29;;;;;;;33.90;12.23;;;;;;;39.36;43.25;100765.78;4769185;30;20420;-70
2022/03/30 10:09:57;;;;;;;20.90;10.77;;;;;;;39.45;43.12;100763.88;4754229;30;20428;-70
2022/03/30 10:12:26;;;;;;;32.33;11.00;;;;;;;39.44;43.03;100773.13;4768633;30;20479;-72
2022/03/30 10:14:53;;;;;;;27.10;11.40;;;;;;;39.51;43.16;100772.66;4768717;30;20424;-72
2022/03/30 10:17:19;;;;;;;30.03;11.13;;;;;;;39.68;42.47;100761.81;4768582;30;20499;-72
2022/03/30 10:19:46;;;;;;;25.83;12.97;;;;;;;39.51;42.53;100764.50;4768719;30;20440;-72
2022/03/30 10:22:27;;;;;;;18.63;11.00;;;;;;;39.59;42.83;100758.28;4769713;30;20409;-69
2022/03/30 10:25:33;;;;;;;34.77;11.60;;;;;;;39.54;42.96;100758.44;4768591;30;20447;-69
2022/03/30 10:28:13;;;;;;;27.00;9.27;;;;;;;39.49;42.78;100762.13;4753740;30;20491;-70
2022/03/30 10:30:43;;;;;;;18.60;9.83;;;;;;;39.42;43.00;100766.44;4768095;30;20915;-72
2022/03/30 10:33:11;;;;;;;28.87;12.17;;;;;;;39.69;42.58;100763.41;4762193;30;20437;-71
2022/03/30 10:35:48;;;;;;;33.17;12.33;;;;;;;39.78;42.66;100758.00;4751093;30;20540;-70
2022/03/30 10:38:16;;;;;;;23.70;9.93;;;;;;;39.83;42.44;100768.66;4749650;30;21000;-71
2022/03/30 10:40:44;;;;;;;34.07;10.20;;;;;;;39.82;42.49;100772.50;4751696;30;20500;-71
2022/03/30 10:43:24;;;;;;;41.50;10.53;;;;;;;39.79;42.60;100769.66;4750485;30;20817;-71
2022/03/30 10:45:50;;;;;;;33.33;10.30;;;;;;;39.79;42.40;100772.38;4750318;30;21008;-70
2022/03/30 10:48:22;;;;;;;19.60;9.43;;;;;;;39.66;42.82;100769.50;4750430;30;20436;-72
2022/03/30 10:50:49;;;;;;;31.83;11.23;;;;;;;39.73;42.93;100764.38;4750272;30;20437;-70
2022/03/30 10:53:33;;;;;;;23.13;10.03;;;;;;;39.59;43.42;100763.69;4751401;30;20459;-71
2022/03/30 10:56:08;;;;;;;24.03;9.20;;;;;;;39.83;42.99;100757.81;4750228;30;20499;-70
2022/03/30 10:58:53;;;;;;;19.00;10.80;;;;;;;39.93;42.70;100759.41;4749663;30;20536;-73
2022/03/30 11:01:27;;;;;;;36.57;11.73;;;;;;;39.79;43.05;100762.31;4749385;30;20445;-70
2022/03/30 11:04:13;;;;;;;23.27;9.97;;;;;;;39.87;42.53;100760.69;4750008;30;20437;-70
2022/03/30 11:06:44;;;;;;;29.03;10.63;;;;;;;39.86;43.00;100765.31;4765143;30;20449;-70
2022/03/30 11:09:23;;;;;;;27.70;10.30;;;;;;;39.84;43.04;100764.84;4759620;30;20837;-71
2022/03/30 11:12:19;;;;;;;31.87;10.47;;;;;;;39.89;42.75;100761.94;4750217;30;20467;-72
2022/03/30 11:15:01;;;;;;;20.07;8.50;;;;;;;39.89;42.64;100755.72;4773374;29;20478;-70
2022/03/30 11:17:32;;;;;;;24.83;10.07;;;;;;;39.92;42.71;100755.09;4759857;30;20417;-72
2022/03/30 11:19:58;;;;;;;35.53;10.00;;;;;;;39.91;42.47;100756.22;4767844;30;20527;-71
2022/03/30 11:22:53;;;;;;;26.17;11.50;;;;;;;40.00;42.42;100749.63;4769004;30;20435;-71